sensor_id;sensor_type;location;lat;lon;timestamp;P1;durP1;ratioP1;P2;durP2;ratioP2
11228;SDS011;5671;47.936;8.716;2024-03-23T00:55:49;3.57;;;1.57;;
11228;SDS011;5671;47.936;8.716;2024-03-23T00:58:15;6.13;;;1.83;;
11228;SDS011;5671;47.936;8.716;2024-03-23T01:00:41;2.50;;;1.50;;
11228;SDS011;5671;47.936;8.716;2024-03-23T01:03:08;1.60;;;1.50;;
11228;SDS011;5671;47.936;8.716;2024-03-23T01:05:34;2.20;;;1.50;;
11228;SDS011;5671;47.936;8.716;2024-03-23T01:08:01;1.50;;;1.40;;
11228;SDS011;5671;47.936;8.716;2024-03-23T01:10:28;2.57;;;1.87;;
11228;SDS011;5671;47.936;8.716;2024-03-23T01:12:55;5.77;;;1.73;;
11228;SDS011;5671;47.936;8.716;2024-03-23T01:15:21;1.67;;;1.50;;
11228;SDS011;5671;47.936;8.716;2024-03-23T01:17:48;3.87;;;1.60;;
11228;SDS011;5671;47.936;8.716;2024-03-23T01:20:14;2.50;;;1.60;;
11228;SDS011;5671;47.936;8.716;2024-03-23T01:22:41;1.67;;;1.57;;
11228;SDS011;5671;47.936;8.716;2024-03-23T01:25:07;5.33;;;1.60;;
11228;SDS011;5671;47.936;8.716;2024-03-23T01:27:35;1.70;;;1.43;;
11228;SDS011;5671;47.936;8.716;2024-03-23T01:30:01;2.80;;;1.87;;
11228;SDS011;5671;47.936;8.716;2024-03-23T01:32:28;2.83;;;1.90;;
11228;SDS011;5671;47.936;8.716;2024-03-23T01:34:54;3.43;;;2.00;;
11228;SDS011;5671;47.936;8.716;2024-03-23T01:37:21;1.70;;;1.60;;
11228;SDS011;5671;47.936;8.716;2024-03-23T01:39:46;1.93;;;1.70;;
11228;SDS011;5671;47.936;8.716;2024-03-23T01:42:13;2.97;;;1.60;;
11228;SDS011;5671;47.936;8.716;2024-03-23T01:44:40;3.53;;;1.63;;
11228;SDS011;5671;47.936;8.716;2024-03-23T01:47:07;3.27;;;1.70;;
11228;SDS011;5671;47.936;8.716;2024-03-23T01:49:34;3.30;;;1.60;;
11228;SDS011;5671;47.936;8.716;2024-03-23T01:52:01;5.30;;;1.37;;
11228;SDS011;5671;47.936;8.716;2024-03-23T01:54:28;3.43;;;1.70;;
11228;SDS011;5671;47.936;8.716;2024-03-23T01:56:56;3.63;;;1.90;;
11228;SDS011;5671;47.936;8.716;2024-03-23T01:59:22;2.63;;;1.80;;
11228;SDS011;5671;47.936;8.716;2024-03-23T02:01:51;4.23;;;1.70;;
11228;SDS011;5671;47.936;8.716;2024-03-23T02:04:17;2.83;;;2.27;;
11228;SDS011;5671;47.936;8.716;2024-03-23T02:06:44;7.13;;;2.20;;
11228;SDS011;5671;47.936;8.716;2024-03-23T02:09:10;3.03;;;2.00;;
11228;SDS011;5671;47.936;8.716;2024-03-23T02:11:37;1.87;;;1.77;;
11228;SDS011;5671;47.936;8.716;2024-03-23T02:14:03;2.47;;;1.80;;
11228;SDS011;5671;47.936;8.716;2024-03-23T02:16:30;2.13;;;1.93;;
11228;SDS011;5671;47.936;8.716;2024-03-23T02:18:57;1.77;;;1.67;;
11228;SDS011;5671;47.936;8.716;2024-03-23T02:21:24;2.63;;;1.80;;
11228;SDS011;5671;47.936;8.716;2024-03-23T02:23:51;5.43;;;2.00;;
11228;SDS011;5671;47.936;8.716;2024-03-23T02:26:18;2.63;;;1.83;;
11228;SDS011;5671;47.936;8.716;2024-03-23T02:28:44;2.10;;;1.90;;
11228;SDS011;5671;47.936;8.716;2024-03-23T02:31:11;3.93;;;1.90;;
11228;SDS011;5671;47.936;8.716;2024-03-23T02:33:37;2.77;;;1.90;;
11228;SDS011;5671;47.936;8.716;2024-03-23T02:36:04;3.40;;;1.70;;
11228;SDS011;5671;47.936;8.716;2024-03-23T02:38:30;3.60;;;2.03;;
11228;SDS011;5671;47.936;8.716;2024-03-23T02:41:02;2.07;;;1.60;;
11228;SDS011;5671;47.936;8.716;2024-03-23T02:43:28;5.10;;;1.70;;
11228;SDS011;5671;47.936;8.716;2024-03-23T02:45:55;2.60;;;1.80;;
11228;SDS011;5671;47.936;8.716;2024-03-23T02:48:21;2.53;;;1.80;;
11228;SDS011;5671;47.936;8.716;2024-03-23T02:50:48;3.53;;;1.87;;
11228;SDS011;5671;47.936;8.716;2024-03-23T02:53:14;2.37;;;2.10;;
11228;SDS011;5671;47.936;8.716;2024-03-23T02:55:42;2.97;;;1.77;;
11228;SDS011;5671;47.936;8.716;2024-03-23T02:58:09;2.97;;;1.90;;
11228;SDS011;5671;47.936;8.716;2024-03-23T03:00:36;2.43;;;1.80;;
11228;SDS011;5671;47.936;8.716;2024-03-23T03:03:02;2.97;;;1.70;;
11228;SDS011;5671;47.936;8.716;2024-03-23T03:05:29;2.27;;;1.90;;
11228;SDS011;5671;47.936;8.716;2024-03-23T03:07:55;2.13;;;1.73;;
11228;SDS011;5671;47.936;8.716;2024-03-23T03:10:22;4.83;;;1.97;;
11228;SDS011;5671;47.936;8.716;2024-03-23T03:12:47;4.50;;;2.37;;
11228;SDS011;5671;47.936;8.716;2024-03-23T03:15:16;2.73;;;1.87;;
11228;SDS011;5671;47.936;8.716;2024-03-23T03:17:41;3.70;;;2.00;;
11228;SDS011;5671;47.936;8.716;2024-03-23T03:20:08;1.87;;;1.73;;
11228;SDS011;5671;47.936;8.716;2024-03-23T03:22:38;1.87;;;1.77;;
11228;SDS011;5671;47.936;8.716;2024-03-23T03:25:05;2.10;;;1.90;;
11228;SDS011;5671;47.936;8.716;2024-03-23T03:27:32;1.90;;;1.80;;
11228;SDS011;5671;47.936;8.716;2024-03-23T03:29:59;4.73;;;2.10;;
11228;SDS011;5671;47.936;8.716;2024-03-23T03:32:28;1.97;;;1.77;;
11228;SDS011;5671;47.936;8.716;2024-03-23T03:34:55;2.13;;;1.80;;
11228;SDS011;5671;47.936;8.716;2024-03-23T03:37:21;2.73;;;1.93;;
11228;SDS011;5671;47.936;8.716;2024-03-23T03:39:48;2.97;;;2.17;;
11228;SDS011;5671;47.936;8.716;2024-03-23T03:42:14;3.50;;;2.00;;
11228;SDS011;5671;47.936;8.716;2024-03-23T03:44:41;2.67;;;1.73;;
11228;SDS011;5671;47.936;8.716;2024-03-23T03:47:07;2.77;;;1.97;;
11228;SDS011;5671;47.936;8.716;2024-03-23T03:49:35;3.67;;;1.90;;
11228;SDS011;5671;47.936;8.716;2024-03-23T03:52:01;3.17;;;1.93;;
11228;SDS011;5671;47.936;8.716;2024-03-23T03:54:27;2.10;;;1.73;;
11228;SDS011;5671;47.936;8.716;2024-03-23T03:56:53;4.00;;;2.17;;
11228;SDS011;5671;47.936;8.716;2024-03-23T03:59:20;2.67;;;2.00;;
11228;SDS011;5671;47.936;8.716;2024-03-23T04:01:46;2.70;;;1.97;;
11228;SDS011;5671;47.936;8.716;2024-03-23T04:04:13;4.20;;;1.80;;
11228;SDS011;5671;47.936;8.716;2024-03-23T04:06:40;2.60;;;1.80;;
11228;SDS011;5671;47.936;8.716;2024-03-23T04:09:07;2.57;;;2.07;;
11228;SDS011;5671;47.936;8.716;2024-03-23T04:11:33;2.60;;;1.97;;
11228;SDS011;5671;47.936;8.716;2024-03-23T04:14:00;4.03;;;2.03;;
11228;SDS011;5671;47.936;8.716;2024-03-23T04:16:29;4.00;;;1.97;;
11228;SDS011;5671;47.936;8.716;2024-03-23T04:19:00;3.00;;;1.93;;
11228;SDS011;5671;47.936;8.716;2024-03-23T04:21:26;2.40;;;1.90;;
11228;SDS011;5671;47.936;8.716;2024-03-23T04:23:54;3.83;;;2.17;;
11228;SDS011;5671;47.936;8.716;2024-03-23T04:26:20;5.97;;;2.17;;
11228;SDS011;5671;47.936;8.716;2024-03-23T04:28:46;2.17;;;1.97;;
11228;SDS011;5671;47.936;8.716;2024-03-23T04:31:12;3.40;;;1.80;;
11228;SDS011;5671;47.936;8.716;2024-03-23T04:33:39;2.80;;;2.10;;
11228;SDS011;5671;47.936;8.716;2024-03-23T04:36:05;5.90;;;2.37;;
11228;SDS011;5671;47.936;8.716;2024-03-23T04:38:33;3.67;;;2.30;;
11228;SDS011;5671;47.936;8.716;2024-03-23T04:41:01;2.03;;;1.70;;
11228;SDS011;5671;47.936;8.716;2024-03-23T04:43:28;3.43;;;2.10;;
11228;SDS011;5671;47.936;8.716;2024-03-23T04:45:55;3.53;;;2.00;;
11228;SDS011;5671;47.936;8.716;2024-03-23T04:48:22;2.47;;;1.70;;
11228;SDS011;5671;47.936;8.716;2024-03-23T04:50:49;4.93;;;2.07;;
11228;SDS011;5671;47.936;8.716;2024-03-23T04:53:20;4.53;;;2.17;;
11228;SDS011;5671;47.936;8.716;2024-03-23T04:55:48;2.27;;;2.07;;
11228;SDS011;5671;47.936;8.716;2024-03-23T04:58:16;2.97;;;2.10;;
11228;SDS011;5671;47.936;8.716;2024-03-23T05:00:42;3.23;;;2.17;;
11228;SDS011;5671;47.936;8.716;2024-03-23T05:03:08;4.57;;;2.20;;
11228;SDS011;5671;47.936;8.716;2024-03-23T05:05:34;3.30;;;2.23;;
11228;SDS011;5671;47.936;8.716;2024-03-23T05:08:01;3.17;;;1.90;;
11228;SDS011;5671;47.936;8.716;2024-03-23T05:10:27;2.40;;;2.20;;
11228;SDS011;5671;47.936;8.716;2024-03-23T05:12:55;3.33;;;2.10;;
11228;SDS011;5671;47.936;8.716;2024-03-23T05:15:22;3.93;;;2.50;;
11228;SDS011;5671;47.936;8.716;2024-03-23T05:17:49;2.17;;;1.93;;
11228;SDS011;5671;47.936;8.716;2024-03-23T05:20:15;2.83;;;1.90;;
11228;SDS011;5671;47.936;8.716;2024-03-23T05:22:43;3.87;;;2.07;;
11228;SDS011;5671;47.936;8.716;2024-03-23T05:25:09;2.07;;;1.33;;
11228;SDS011;5671;47.936;8.716;2024-03-23T05:27:36;2.47;;;1.53;;
11228;SDS011;5671;47.936;8.716;2024-03-23T05:30:02;2.50;;;1.67;;
11228;SDS011;5671;47.936;8.716;2024-03-23T05:32:32;2.20;;;1.40;;
11228;SDS011;5671;47.936;8.716;2024-03-23T05:34:58;1.40;;;1.30;;
11228;SDS011;5671;47.936;8.716;2024-03-23T05:37:24;1.30;;;1.20;;
11228;SDS011;5671;47.936;8.716;2024-03-23T05:39:50;2.20;;;1.60;;
11228;SDS011;5671;47.936;8.716;2024-03-23T05:42:17;1.67;;;1.40;;
11228;SDS011;5671;47.936;8.716;2024-03-23T05:44:44;2.53;;;1.43;;
11228;SDS011;5671;47.936;8.716;2024-03-23T05:47:11;2.27;;;2.00;;
11228;SDS011;5671;47.936;8.716;2024-03-23T05:49:39;3.73;;;1.80;;
11228;SDS011;5671;47.936;8.716;2024-03-23T05:52:07;1.70;;;1.60;;
11228;SDS011;5671;47.936;8.716;2024-03-23T05:54:33;1.97;;;1.60;;
11228;SDS011;5671;47.936;8.716;2024-03-23T05:57:00;3.13;;;1.80;;
11228;SDS011;5671;47.936;8.716;2024-03-23T05:59:26;2.33;;;1.60;;
11228;SDS011;5671;47.936;8.716;2024-03-23T06:01:54;2.57;;;1.47;;
11228;SDS011;5671;47.936;8.716;2024-03-23T06:04:20;2.80;;;1.80;;
11228;SDS011;5671;47.936;8.716;2024-03-23T06:06:49;2.20;;;1.60;;
11228;SDS011;5671;47.936;8.716;2024-03-23T06:09:17;1.77;;;1.67;;
11228;SDS011;5671;47.936;8.716;2024-03-23T06:11:44;2.40;;;2.00;;
11228;SDS011;5671;47.936;8.716;2024-03-23T06:14:10;2.87;;;1.90;;
11228;SDS011;5671;47.936;8.716;2024-03-23T06:16:37;2.13;;;1.77;;
11228;SDS011;5671;47.936;8.716;2024-03-23T06:19:03;4.60;;;2.20;;
11228;SDS011;5671;47.936;8.716;2024-03-23T06:21:31;2.70;;;2.00;;
11228;SDS011;5671;47.936;8.716;2024-03-23T06:23:59;2.33;;;1.80;;
11228;SDS011;5671;47.936;8.716;2024-03-23T06:26:26;3.13;;;2.20;;
11228;SDS011;5671;47.936;8.716;2024-03-23T06:28:51;3.67;;;2.43;;
11228;SDS011;5671;47.936;8.716;2024-03-23T06:31:19;2.40;;;2.20;;
11228;SDS011;5671;47.936;8.716;2024-03-23T06:33:44;3.53;;;2.60;;
11228;SDS011;5671;47.936;8.716;2024-03-23T06:36:11;2.83;;;2.20;;
11228;SDS011;5671;47.936;8.716;2024-03-23T06:38:37;2.40;;;2.20;;
11228;SDS011;5671;47.936;8.716;2024-03-23T06:41:06;3.60;;;2.47;;
11228;SDS011;5671;47.936;8.716;2024-03-23T06:43:31;6.03;;;2.83;;
11228;SDS011;5671;47.936;8.716;2024-03-23T06:45:58;2.50;;;2.30;;
11228;SDS011;5671;47.936;8.716;2024-03-23T06:48:24;2.37;;;2.00;;
11228;SDS011;5671;47.936;8.716;2024-03-23T06:50:57;2.53;;;2.10;;
11228;SDS011;5671;47.936;8.716;2024-03-23T06:53:23;2.20;;;2.00;;
11228;SDS011;5671;47.936;8.716;2024-03-23T06:55:51;2.93;;;2.03;;
11228;SDS011;5671;47.936;8.716;2024-03-23T06:58:19;2.50;;;2.00;;
11228;SDS011;5671;47.936;8.716;2024-03-23T07:00:46;2.50;;;1.90;;
11228;SDS011;5671;47.936;8.716;2024-03-23T07:03:12;1.70;;;1.60;;
11228;SDS011;5671;47.936;8.716;2024-03-23T07:05:39;2.30;;;2.10;;
11228;SDS011;5671;47.936;8.716;2024-03-23T07:08:05;2.63;;;2.30;;
11228;SDS011;5671;47.936;8.716;2024-03-23T07:10:33;3.80;;;3.10;;
11228;SDS011;5671;47.936;8.716;2024-03-23T07:12:58;2.57;;;2.37;;
11228;SDS011;5671;47.936;8.716;2024-03-23T07:15:27;2.60;;;2.40;;
11228;SDS011;5671;47.936;8.716;2024-03-23T07:17:52;2.80;;;2.60;;
11228;SDS011;5671;47.936;8.716;2024-03-23T07:20:19;3.10;;;2.90;;
11228;SDS011;5671;47.936;8.716;2024-03-23T07:22:45;2.70;;;2.50;;
11228;SDS011;5671;47.936;8.716;2024-03-23T07:25:14;2.60;;;2.40;;
11228;SDS011;5671;47.936;8.716;2024-03-23T07:27:40;2.20;;;2.10;;
11228;SDS011;5671;47.936;8.716;2024-03-23T07:30:07;2.37;;;2.07;;
11228;SDS011;5671;47.936;8.716;2024-03-23T07:32:35;1.97;;;1.60;;
11228;SDS011;5671;47.936;8.716;2024-03-23T07:35:02;1.07;;;1.07;;
11228;SDS011;5671;47.936;8.716;2024-03-23T07:37:29;0.90;;;0.90;;
11228;SDS011;5671;47.936;8.716;2024-03-23T07:39:56;0.70;;;0.70;;
11228;SDS011;5671;47.936;8.716;2024-03-23T07:42:23;0.60;;;0.60;;
11228;SDS011;5671;47.936;8.716;2024-03-23T07:44:51;0.40;;;0.40;;
11228;SDS011;5671;47.936;8.716;2024-03-23T07:47:19;0.50;;;0.50;;
11228;SDS011;5671;47.936;8.716;2024-03-23T07:49:47;1.67;;;0.70;;
11228;SDS011;5671;47.936;8.716;2024-03-23T07:52:13;1.67;;;0.40;;
11228;SDS011;5671;47.936;8.716;2024-03-23T07:54:39;0.63;;;0.43;;
11228;SDS011;5671;47.936;8.716;2024-03-23T07:57:09;0.10;;;0.10;;
11228;SDS011;5671;47.936;8.716;2024-03-23T07:59:35;0.40;;;0.40;;
11228;SDS011;5671;47.936;8.716;2024-03-23T08:02:02;0.20;;;0.20;;
11228;SDS011;5671;47.936;8.716;2024-03-23T08:04:28;0.20;;;0.20;;
11228;SDS011;5671;47.936;8.716;2024-03-23T08:06:57;0.20;;;0.20;;
11228;SDS011;5671;47.936;8.716;2024-03-23T08:09:22;0.13;;;0.13;;
11228;SDS011;5671;47.936;8.716;2024-03-23T08:11:49;0.10;;;0.10;;
11228;SDS011;5671;47.936;8.716;2024-03-23T08:14:15;0.07;;;0.07;;
11228;SDS011;5671;47.936;8.716;2024-03-23T08:16:42;0.47;;;0.10;;
11228;SDS011;5671;47.936;8.716;2024-03-23T08:19:13;0.20;;;0.20;;
11228;SDS011;5671;47.936;8.716;2024-03-23T08:21:43;0.30;;;0.20;;
11228;SDS011;5671;47.936;8.716;2024-03-23T08:24:10;0.00;;;0.00;;
11228;SDS011;5671;47.936;8.716;2024-03-23T08:26:37;0.10;;;0.10;;
11228;SDS011;5671;47.936;8.716;2024-03-23T08:29:03;0.00;;;0.00;;
11228;SDS011;5671;47.936;8.716;2024-03-23T08:31:30;0.30;;;0.13;;
11228;SDS011;5671;47.936;8.716;2024-03-23T08:33:57;0.00;;;0.00;;
11228;SDS011;5671;47.936;8.716;2024-03-23T08:36:23;0.20;;;0.10;;
11228;SDS011;5671;47.936;8.716;2024-03-23T08:38:50;0.20;;;0.20;;
11228;SDS011;5671;47.936;8.716;2024-03-23T08:41:20;0.57;;;0.30;;
11228;SDS011;5671;47.936;8.716;2024-03-23T08:43:47;0.37;;;0.10;;
11228;SDS011;5671;47.936;8.716;2024-03-23T08:46:16;0.73;;;0.30;;
11228;SDS011;5671;47.936;8.716;2024-03-23T08:48:43;1.17;;;0.50;;
11228;SDS011;5671;47.936;8.716;2024-03-23T08:51:10;1.13;;;0.37;;
11228;SDS011;5671;47.936;8.716;2024-03-23T08:53:42;0.40;;;0.40;;
11228;SDS011;5671;47.936;8.716;2024-03-23T08:56:08;1.53;;;0.87;;
11228;SDS011;5671;47.936;8.716;2024-03-23T08:58:37;0.73;;;0.60;;
11228;SDS011;5671;47.936;8.716;2024-03-23T09:01:04;1.37;;;0.93;;
11228;SDS011;5671;47.936;8.716;2024-03-23T09:03:33;1.13;;;0.87;;
11228;SDS011;5671;47.936;8.716;2024-03-23T09:05:59;2.83;;;1.20;;
11228;SDS011;5671;47.936;8.716;2024-03-23T09:08:26;2.57;;;1.20;;
11228;SDS011;5671;47.936;8.716;2024-03-23T09:10:52;2.97;;;1.30;;
11228;SDS011;5671;47.936;8.716;2024-03-23T09:13:19;3.33;;;1.40;;
11228;SDS011;5671;47.936;8.716;2024-03-23T09:15:48;3.60;;;1.60;;
11228;SDS011;5671;47.936;8.716;2024-03-23T09:18:16;3.47;;;1.30;;
11228;SDS011;5671;47.936;8.716;2024-03-23T09:20:42;4.40;;;1.80;;
11228;SDS011;5671;47.936;8.716;2024-03-23T09:23:09;4.20;;;2.10;;
11228;SDS011;5671;47.936;8.716;2024-03-23T09:25:38;2.87;;;1.40;;
11228;SDS011;5671;47.936;8.716;2024-03-23T09:28:05;4.50;;;1.90;;
11228;SDS011;5671;47.936;8.716;2024-03-23T09:30:34;4.83;;;1.90;;
11228;SDS011;5671;47.936;8.716;2024-03-23T09:33:02;4.33;;;1.73;;
11228;SDS011;5671;47.936;8.716;2024-03-23T09:35:29;6.07;;;2.00;;
11228;SDS011;5671;47.936;8.716;2024-03-23T09:37:55;4.00;;;2.00;;
11228;SDS011;5671;47.936;8.716;2024-03-23T09:40:22;3.33;;;1.83;;
11228;SDS011;5671;47.936;8.716;2024-03-23T09:42:49;4.90;;;2.33;;
11228;SDS011;5671;47.936;8.716;2024-03-23T09:45:16;3.67;;;1.90;;
11228;SDS011;5671;47.936;8.716;2024-03-23T09:47:47;4.20;;;1.80;;
11228;SDS011;5671;47.936;8.716;2024-03-23T09:50:14;10.23;;;1.90;;
11228;SDS011;5671;47.936;8.716;2024-03-23T09:52:41;5.30;;;2.10;;
11228;SDS011;5671;47.936;8.716;2024-03-23T09:55:07;3.97;;;2.30;;
11228;SDS011;5671;47.936;8.716;2024-03-23T09:57:34;5.00;;;2.33;;
11228;SDS011;5671;47.936;8.716;2024-03-23T10:00:00;1.90;;;1.70;;
11228;SDS011;5671;47.936;8.716;2024-03-23T10:02:27;6.00;;;2.20;;
11228;SDS011;5671;47.936;8.716;2024-03-23T10:04:54;4.67;;;1.70;;
11228;SDS011;5671;47.936;8.716;2024-03-23T10:07:24;2.80;;;1.60;;
11228;SDS011;5671;47.936;8.716;2024-03-23T10:09:51;5.23;;;2.03;;
11228;SDS011;5671;47.936;8.716;2024-03-23T10:12:18;6.03;;;2.53;;
11228;SDS011;5671;47.936;8.716;2024-03-23T10:14:45;4.60;;;2.30;;
11228;SDS011;5671;47.936;8.716;2024-03-23T10:17:13;4.37;;;2.00;;
11228;SDS011;5671;47.936;8.716;2024-03-23T10:19:40;3.43;;;2.00;;
11228;SDS011;5671;47.936;8.716;2024-03-23T10:22:08;3.97;;;2.30;;
11228;SDS011;5671;47.936;8.716;2024-03-23T10:24:35;5.73;;;2.20;;
11228;SDS011;5671;47.936;8.716;2024-03-23T10:27:02;5.67;;;2.13;;
11228;SDS011;5671;47.936;8.716;2024-03-23T10:29:28;5.00;;;2.17;;
11228;SDS011;5671;47.936;8.716;2024-03-23T10:31:58;4.83;;;2.10;;
11228;SDS011;5671;47.936;8.716;2024-03-23T10:34:33;4.33;;;2.00;;
11228;SDS011;5671;47.936;8.716;2024-03-23T10:37:00;2.53;;;1.70;;
11228;SDS011;5671;47.936;8.716;2024-03-23T10:39:28;2.47;;;1.70;;
11228;SDS011;5671;47.936;8.716;2024-03-23T10:41:58;3.90;;;2.00;;
11228;SDS011;5671;47.936;8.716;2024-03-23T10:44:25;3.70;;;1.80;;
11228;SDS011;5671;47.936;8.716;2024-03-23T10:46:54;5.43;;;1.93;;
11228;SDS011;5671;47.936;8.716;2024-03-23T10:49:24;3.57;;;1.57;;
11228;SDS011;5671;47.936;8.716;2024-03-23T10:51:52;4.20;;;1.67;;
11228;SDS011;5671;47.936;8.716;2024-03-23T10:54:18;5.60;;;1.87;;
11228;SDS011;5671;47.936;8.716;2024-03-23T10:56:46;3.10;;;1.63;;
11228;SDS011;5671;47.936;8.716;2024-03-23T10:59:15;4.40;;;1.50;;
11228;SDS011;5671;47.936;8.716;2024-03-23T11:01:53;3.63;;;1.50;;
11228;SDS011;5671;47.936;8.716;2024-03-23T11:04:29;4.50;;;1.77;;
11228;SDS011;5671;47.936;8.716;2024-03-23T11:06:56;5.03;;;2.07;;
11228;SDS011;5671;47.936;8.716;2024-03-23T11:12:26;3.40;;;1.50;;
11228;SDS011;5671;47.936;8.716;2024-03-23T11:14:55;4.93;;;1.90;;
11228;SDS011;5671;47.936;8.716;2024-03-23T11:17:24;4.27;;;1.70;;
11228;SDS011;5671;47.936;8.716;2024-03-23T11:19:54;4.20;;;2.10;;
11228;SDS011;5671;47.936;8.716;2024-03-23T11:22:37;2.77;;;1.30;;
11228;SDS011;5671;47.936;8.716;2024-03-23T11:25:11;3.33;;;1.23;;
11228;SDS011;5671;47.936;8.716;2024-03-23T11:27:39;3.67;;;1.47;;
11228;SDS011;5671;47.936;8.716;2024-03-23T11:30:16;5.13;;;1.47;;
11228;SDS011;5671;47.936;8.716;2024-03-23T11:32:44;2.90;;;1.40;;
11228;SDS011;5671;47.936;8.716;2024-03-23T11:35:10;4.33;;;1.47;;
11228;SDS011;5671;47.936;8.716;2024-03-23T11:38:00;3.40;;;1.40;;
11228;SDS011;5671;47.936;8.716;2024-03-23T11:40:27;5.13;;;1.47;;
11228;SDS011;5671;47.936;8.716;2024-03-23T11:42:55;6.00;;;1.70;;
11228;SDS011;5671;47.936;8.716;2024-03-23T11:45:23;3.90;;;1.30;;
11228;SDS011;5671;47.936;8.716;2024-03-23T11:48:01;2.63;;;1.33;;
11228;SDS011;5671;47.936;8.716;2024-03-23T11:50:30;3.60;;;1.40;;
11228;SDS011;5671;47.936;8.716;2024-03-23T11:53:07;5.23;;;1.40;;
11228;SDS011;5671;47.936;8.716;2024-03-23T11:55:38;3.20;;;1.30;;
11228;SDS011;5671;47.936;8.716;2024-03-23T11:58:09;2.50;;;1.33;;
11228;SDS011;5671;47.936;8.716;2024-03-23T12:00:37;2.90;;;1.80;;
11228;SDS011;5671;47.936;8.716;2024-03-23T12:03:04;1.10;;;1.00;;
11228;SDS011;5671;47.936;8.716;2024-03-23T12:05:31;3.90;;;2.37;;
11228;SDS011;5671;47.936;8.716;2024-03-23T12:08:17;1.30;;;0.73;;
11228;SDS011;5671;47.936;8.716;2024-03-23T12:10:44;2.00;;;0.73;;
11228;SDS011;5671;47.936;8.716;2024-03-23T12:13:14;0.53;;;0.40;;
11228;SDS011;5671;47.936;8.716;2024-03-23T12:15:45;1.17;;;0.60;;
11228;SDS011;5671;47.936;8.716;2024-03-23T12:18:13;1.57;;;0.70;;
11228;SDS011;5671;47.936;8.716;2024-03-23T12:20:39;2.33;;;1.00;;
11228;SDS011;5671;47.936;8.716;2024-03-23T12:23:06;2.10;;;1.30;;
11228;SDS011;5671;47.936;8.716;2024-03-23T12:25:36;3.30;;;1.20;;
11228;SDS011;5671;47.936;8.716;2024-03-23T12:28:04;1.73;;;0.93;;
11228;SDS011;5671;47.936;8.716;2024-03-23T12:30:31;3.63;;;1.33;;
11228;SDS011;5671;47.936;8.716;2024-03-23T12:33:00;2.47;;;1.17;;
11228;SDS011;5671;47.936;8.716;2024-03-23T12:35:27;3.57;;;1.20;;
11228;SDS011;5671;47.936;8.716;2024-03-23T12:37:54;2.63;;;0.90;;
11228;SDS011;5671;47.936;8.716;2024-03-23T12:40:20;2.23;;;1.37;;
11228;SDS011;5671;47.936;8.716;2024-03-23T12:42:46;2.77;;;0.83;;
11228;SDS011;5671;47.936;8.716;2024-03-23T12:45:12;2.97;;;1.67;;
11228;SDS011;5671;47.936;8.716;2024-03-23T12:47:39;2.20;;;1.40;;
11228;SDS011;5671;47.936;8.716;2024-03-23T12:50:07;3.53;;;1.10;;
11228;SDS011;5671;47.936;8.716;2024-03-23T12:52:35;1.87;;;0.90;;
11228;SDS011;5671;47.936;8.716;2024-03-23T12:55:00;2.23;;;1.27;;
11228;SDS011;5671;47.936;8.716;2024-03-23T12:57:28;4.13;;;1.40;;
11228;SDS011;5671;47.936;8.716;2024-03-23T12:59:54;2.30;;;1.20;;
11228;SDS011;5671;47.936;8.716;2024-03-23T13:02:23;3.00;;;1.17;;
11228;SDS011;5671;47.936;8.716;2024-03-23T13:04:49;2.23;;;1.10;;
11228;SDS011;5671;47.936;8.716;2024-03-23T13:07:18;3.80;;;1.30;;
11228;SDS011;5671;47.936;8.716;2024-03-23T13:09:45;2.97;;;1.20;;
11228;SDS011;5671;47.936;8.716;2024-03-23T13:12:12;2.13;;;1.20;;
11228;SDS011;5671;47.936;8.716;2024-03-23T13:14:38;1.40;;;1.07;;
11228;SDS011;5671;47.936;8.716;2024-03-23T13:17:05;3.97;;;1.40;;
11228;SDS011;5671;47.936;8.716;2024-03-23T13:19:31;1.90;;;1.27;;
11228;SDS011;5671;47.936;8.716;2024-03-23T13:21:58;4.33;;;1.20;;
11228;SDS011;5671;47.936;8.716;2024-03-23T13:24:26;4.67;;;1.00;;
11228;SDS011;5671;47.936;8.716;2024-03-23T13:26:54;2.27;;;0.93;;
11228;SDS011;5671;47.936;8.716;2024-03-23T13:29:21;2.93;;;1.40;;
11228;SDS011;5671;47.936;8.716;2024-03-23T13:31:49;2.77;;;1.30;;
11228;SDS011;5671;47.936;8.716;2024-03-23T13:34:16;3.90;;;1.57;;
11228;SDS011;5671;47.936;8.716;2024-03-23T13:36:43;2.97;;;1.47;;
11228;SDS011;5671;47.936;8.716;2024-03-23T13:39:10;4.37;;;1.77;;
11228;SDS011;5671;47.936;8.716;2024-03-23T13:41:41;3.33;;;1.87;;
11228;SDS011;5671;47.936;8.716;2024-03-23T13:44:08;1.53;;;1.20;;
11228;SDS011;5671;47.936;8.716;2024-03-23T13:46:36;3.73;;;1.17;;
11228;SDS011;5671;47.936;8.716;2024-03-23T13:49:02;2.10;;;1.10;;
11228;SDS011;5671;47.936;8.716;2024-03-23T13:51:30;4.50;;;1.50;;
11228;SDS011;5671;47.936;8.716;2024-03-23T13:53:56;2.33;;;1.00;;
11228;SDS011;5671;47.936;8.716;2024-03-23T13:56:26;2.70;;;1.00;;
11228;SDS011;5671;47.936;8.716;2024-03-23T13:58:54;3.57;;;1.47;;
11228;SDS011;5671;47.936;8.716;2024-03-23T14:01:23;1.87;;;0.90;;
11228;SDS011;5671;47.936;8.716;2024-03-23T14:03:49;2.20;;;1.10;;
11228;SDS011;5671;47.936;8.716;2024-03-23T14:06:16;1.90;;;1.10;;
11228;SDS011;5671;47.936;8.716;2024-03-23T14:08:42;1.60;;;1.00;;
11228;SDS011;5671;47.936;8.716;2024-03-23T14:11:09;2.97;;;1.07;;
11228;SDS011;5671;47.936;8.716;2024-03-23T14:13:35;2.47;;;1.47;;
11228;SDS011;5671;47.936;8.716;2024-03-23T14:16:04;3.03;;;1.23;;
11228;SDS011;5671;47.936;8.716;2024-03-23T14:18:30;2.17;;;1.00;;
11228;SDS011;5671;47.936;8.716;2024-03-23T14:20:57;2.70;;;1.00;;
11228;SDS011;5671;47.936;8.716;2024-03-23T14:23:25;1.70;;;0.90;;
11228;SDS011;5671;47.936;8.716;2024-03-23T14:25:52;2.87;;;1.03;;
11228;SDS011;5671;47.936;8.716;2024-03-23T14:28:19;4.37;;;1.10;;
11228;SDS011;5671;47.936;8.716;2024-03-23T14:30:47;5.47;;;1.37;;
11228;SDS011;5671;47.936;8.716;2024-03-23T14:33:14;3.00;;;1.00;;
11228;SDS011;5671;47.936;8.716;2024-03-23T14:35:41;3.27;;;1.20;;
11228;SDS011;5671;47.936;8.716;2024-03-23T14:38:07;3.00;;;1.30;;
11228;SDS011;5671;47.936;8.716;2024-03-23T14:40:34;3.40;;;1.20;;
11228;SDS011;5671;47.936;8.716;2024-03-23T14:43:00;3.40;;;1.37;;
11228;SDS011;5671;47.936;8.716;2024-03-23T14:45:27;5.10;;;1.03;;
11228;SDS011;5671;47.936;8.716;2024-03-23T14:47:53;4.43;;;1.00;;
11228;SDS011;5671;47.936;8.716;2024-03-23T14:50:21;2.07;;;1.10;;
11228;SDS011;5671;47.936;8.716;2024-03-23T14:52:47;5.13;;;1.43;;
11228;SDS011;5671;47.936;8.716;2024-03-23T14:55:14;1.83;;;1.20;;
11228;SDS011;5671;47.936;8.716;2024-03-23T14:57:42;3.40;;;1.10;;
11228;SDS011;5671;47.936;8.716;2024-03-23T15:00:09;2.00;;;1.20;;
11228;SDS011;5671;47.936;8.716;2024-03-23T15:02:37;4.17;;;1.20;;
11228;SDS011;5671;47.936;8.716;2024-03-23T15:05:04;4.23;;;1.30;;
11228;SDS011;5671;47.936;8.716;2024-03-23T15:07:35;4.50;;;1.50;;
11228;SDS011;5671;47.936;8.716;2024-03-23T15:10:06;3.67;;;1.37;;
11228;SDS011;5671;47.936;8.716;2024-03-23T15:12:33;3.50;;;1.27;;
11228;SDS011;5671;47.936;8.716;2024-03-23T15:15:00;3.77;;;1.30;;
11228;SDS011;5671;47.936;8.716;2024-03-23T15:17:26;3.03;;;1.00;;
11228;SDS011;5671;47.936;8.716;2024-03-23T15:19:59;5.77;;;1.20;;
11228;SDS011;5671;47.936;8.716;2024-03-23T15:22:25;4.83;;;1.40;;
11228;SDS011;5671;47.936;8.716;2024-03-23T15:24:53;3.80;;;1.40;;
11228;SDS011;5671;47.936;8.716;2024-03-23T15:27:19;4.43;;;1.03;;
11228;SDS011;5671;47.936;8.716;2024-03-23T15:29:46;3.80;;;1.50;;
11228;SDS011;5671;47.936;8.716;2024-03-23T15:32:12;5.03;;;1.47;;
11228;SDS011;5671;47.936;8.716;2024-03-23T15:34:42;4.43;;;1.50;;
11228;SDS011;5671;47.936;8.716;2024-03-23T15:37:11;2.33;;;1.10;;
11228;SDS011;5671;47.936;8.716;2024-03-23T15:39:42;4.60;;;1.40;;
11228;SDS011;5671;47.936;8.716;2024-03-23T15:42:10;1.70;;;0.90;;
11228;SDS011;5671;47.936;8.716;2024-03-23T15:44:37;3.47;;;0.93;;
11228;SDS011;5671;47.936;8.716;2024-03-23T15:47:06;2.87;;;1.50;;
11228;SDS011;5671;47.936;8.716;2024-03-23T15:49:33;4.60;;;1.17;;
11228;SDS011;5671;47.936;8.716;2024-03-23T15:51:59;5.17;;;1.30;;
11228;SDS011;5671;47.936;8.716;2024-03-23T15:54:25;3.83;;;1.17;;
11228;SDS011;5671;47.936;8.716;2024-03-23T15:56:51;2.80;;;1.30;;
11228;SDS011;5671;47.936;8.716;2024-03-23T15:59:20;3.20;;;1.20;;